首页
METAR-TAF:

METAR-TAF

机场 :

吉隆坡国际机场

吉隆坡, 马来西亚

纬度: 02-44N, 经度: 101-42E, 海拔: 21米

当前天气观测

该预报发布于41分钟前的03:30 UTC
风速3节,风向多变
温度 32°C
湿度 71%
气压 1010 hPa
能见度10公里或以上
少量云层高于1700英尺, 积雨云.
散云层高于1800英尺

METAR: WMKK 280330Z VRB03KT 9999 FEW017CB SCT018 32/26 Q1010 NOSIG

时间: 12:11 (04:11 UTC)

预报

该预报发布于5小时和11分钟前的23:00 UTC
预报有效从28日的 00点(UTC)到 29日的 06点(UTC)
风速3节,风向多变
能见度10公里或以上
少量云层高于1800英尺
几率 30% :
短暂存在
从 28日的 00点(UTC)到 28日的 03点(UTC)
能見度: 4000
少量云层高于1700英尺, 积雨云.
雷暴, 雨,

TAF: WMKK 272300Z 2800/2906 VRB03KT 9999 FEW018 PROB30 TEMPO 2800/2803 4000 TSRA FEW017CB

超过4000个机场的气象观测和天气预报(METAR&TAF报告)。

可查询的气象台以黄色和红色小点在地图上表示。

将鼠标移到小点上方,可查看气象台名称。

然后点击查看天气观测和预报。

如需切换地图:点击带黑十字的绿色按钮放大地图;点击带横线的绿色按钮缩小地图;或者点击绿色箭头查看邻近地区的地图。


METAR-TAF: